LFBELFBP

Guest
Details From LFBE - Bergerac Roumaniere
To LFBP - Pau Pyrenees
Flight Number -
Tags Generated
Created
Modified
Stats Distance 95 nm / 177 km
Max Altitude 0 ft / 0 m
Waypoints 2
Social Downloads 1
Likes 0
Share VATSIM

Download

Looking for another format? Having issues loading an existing format? Contact us
Advertisement - Login to hide

Notes

Generated

Route

LFBE LFBP

ID Type Via Altitude Latitude Longitude Leg Dist Tot Dist Heading (true) Name
O LFBE APT - 0 ft / 0 m 44.82527˚ 0.50495˚ - 0 nm - -
O LFBP APT - 0 ft / 0 m 43.38766˚ -0.43326˚ 95 nm 95 nm 205° / 205° -

Altitude Profile

Advertisement - Login to hide

LFBE

Details ICAO LFBE (EGC)
Name Bergerac Roumaniere
Region France
Timezone Europe/Paris (UTC+1.0)
Stats Elevation 171 ft / 52 m (AMSL)
Location 44.824525° 0.518776°
Runways 1
Magnetic Variation 0.289° E

METAR

LFBE 132030Z AUTO 29012G22KT 250V330 9999 -RA BKN009 OVC015 11/10 Q1013 TEMPO 4500 -SHRA SCT008 BKN015TCU BECMG 27015KT

Decode

TAF

TAF LFBE 131700Z 1318/1418 21015G25KT 9999 BKN015 TEMPO 1318/1322 3000 RA BKN005 OVC010 BECMG 1320/1322 27015KT BKN020 PROB30 TEMPO 1322/1402 4500 -SHRA SCT008 BKN015TCU BECMG 1400/1402 24008KT BECMG 1410/1412 24015G25KT PROB40 TEMPO 1414/1418 3000 RA BKN010 OVC020

Decode

Departure Runways

ID Width Length Bearing (true) Bearing (mag) Surface Threshold Offset Overrun Length
10 148 ft / 45 m 7,178 ft / 2,188 m 94.33° 94.04° Asphalt 687 ft / 209 m 0 ft / 0 m
28 148 ft / 45 m 7,178 ft / 2,188 m 274.35° 274.06° Asphalt 804 ft / 245 m 0 ft / 0 m

LFBP

Details ICAO LFBP (PUF)
Name Pau Pyrenees
Region France
Timezone Europe/Paris (UTC+1.0)
Stats Elevation 616 ft / 188 m (AMSL)
Location 43.381078° -0.420752°
Runways 1
Magnetic Variation 0.094° E

METAR

LFBP 132030Z AUTO 26013KT 9999 BKN034 OVC056 14/08 Q1016 TEMPO 27015G25KT 3000 -RA

Decode

TAF

TAF LFBP 131700Z 1318/1418 24008KT 9999 BKN050 TEMPO 1318/1409 3000 -RA BKN025 TEMPO 1415/1418 4000 -RA BKN030 PROB30 TEMPO 1320/1324 27015G25KT

Decode

Destination Runways

ID Width Length Bearing (true) Bearing (mag) Surface Threshold Offset Overrun Length
13 148 ft / 45 m 8,191 ft / 2,497 m 125.89° 125.80° Asphalt 0 ft / 0 m 0 ft / 0 m
31 148 ft / 45 m 8,191 ft / 2,497 m 305.90° 305.81° Asphalt 0 ft / 0 m 0 ft / 0 m

Approach Navaids

Runway Type Ident Frequency Range Bearing (true) Bearing (mag) Slope Elevation
31 Localiser PU 110.10 MHz 18 nm / 33 km 305.89° 305.79° - 576 ft / 176 m (AMSL)
31 Glidescope PU 110.10 MHz 10 nm / 19 km 305.90° 305.80° 3.00° 676 ft / 206 m (AMSL)
31 DME PU 110.10 MHz 18 nm / 33 km - - - 608 ft / 185 m (AMSL)

Popular Alternatives